createdAt,value
2022-11-03T00:01:36.149Z,18.30
2022-11-03T00:04:04.636Z,11.27
2022-11-03T00:06:34.538Z,25.33
2022-11-03T00:09:05.869Z,12.45
2022-11-03T00:11:34.665Z,14.77
2022-11-03T00:14:03.193Z,11.32
2022-11-03T00:16:31.746Z,14.60
2022-11-03T00:19:00.133Z,16.42
2022-11-03T00:21:28.918Z,12.88
2022-11-03T00:23:58.749Z,20.20
2022-11-03T00:26:28.657Z,17.30
2022-11-03T00:28:58.149Z,16.83
2022-11-03T00:31:27.698Z,16.48
2022-11-03T00:33:56.613Z,18.00
2022-11-03T00:36:26.754Z,30.95
2022-11-03T00:38:55.372Z,26.17
2022-11-03T00:41:26.132Z,22.52
2022-11-03T00:43:54.856Z,18.65
2022-11-03T00:46:24.223Z,13.85
2022-11-03T00:48:53.227Z,16.90
2022-11-03T00:51:23.052Z,17.35
2022-11-03T00:53:53.355Z,16.70
2022-11-03T00:56:23.336Z,18.80
2022-11-03T00:58:54.349Z,17.58
2022-11-03T01:01:24.498Z,15.18
2022-11-03T01:04:12.770Z,13.73
2022-11-03T01:06:51.697Z,11.23
2022-11-03T01:09:20.724Z,15.15
2022-11-03T01:11:55.115Z,15.82
2022-11-03T01:14:26.100Z,23.52
2022-11-03T01:16:54.374Z,33.20
2022-11-03T01:19:23.197Z,18.65
2022-11-03T01:21:51.437Z,9.57
2022-11-03T01:24:20.047Z,8.75
2022-11-03T01:26:48.313Z,5.60
2022-11-03T01:29:16.677Z,9.45
2022-11-03T01:31:46.326Z,10.95
2022-11-03T01:34:16.220Z,15.50
2022-11-03T01:36:44.824Z,8.45
2022-11-03T01:39:14.252Z,9.20
2022-11-03T01:41:43.654Z,31.92
2022-11-03T01:44:27.793Z,20.15
2022-11-03T01:47:02.208Z,25.58
2022-11-03T01:49:34.832Z,25.42
2022-11-03T01:52:06.568Z,22.65
2022-11-03T01:54:35.704Z,10.90
2022-11-03T01:57:06.919Z,58.58
2022-11-03T01:59:35.706Z,65.72
2022-11-03T02:02:05.568Z,59.70
2022-11-03T02:04:35.023Z,52.67
2022-11-03T02:07:11.676Z,22.60
2022-11-03T02:09:40.077Z,23.08
2022-11-03T02:12:09.021Z,11.43
2022-11-03T02:14:39.574Z,8.48
2022-11-03T02:17:12.362Z,36.80
2022-11-03T02:19:43.572Z,34.10
2022-11-03T02:22:38.462Z,4.80
2022-11-03T02:25:15.507Z,12.73
2022-11-03T02:27:45.483Z,29.42
2022-11-03T02:30:14.127Z,31.30
2022-11-03T02:32:49.700Z,29.75
2022-11-03T02:35:22.395Z,5.53
2022-11-03T02:37:52.818Z,5.20
2022-11-03T02:40:25.135Z,6.43
2022-11-03T02:42:55.266Z,6.18
2022-11-03T02:45:26.000Z,5.05
2022-11-03T02:47:56.837Z,6.18
2022-11-03T02:50:28.822Z,5.10
2022-11-03T02:52:57.535Z,4.82
2022-11-03T02:55:34.113Z,5.85
2022-11-03T02:58:08.687Z,6.57
2022-11-03T03:00:42.476Z,7.50
2022-11-03T03:03:13.839Z,6.22
2022-11-03T03:05:43.659Z,5.05
2022-11-03T03:08:13.072Z,5.00
2022-11-03T03:10:43.978Z,5.68
2022-11-03T03:13:16.325Z,5.78
2022-11-03T03:15:48.742Z,6.35
2022-11-03T03:18:22.215Z,6.78
2022-11-03T03:20:57.116Z,7.00
2022-11-03T03:23:26.876Z,7.13
2022-11-03T03:25:58.560Z,6.73
2022-11-03T03:28:32.462Z,9.93
2022-11-03T03:31:02.804Z,10.10
2022-11-03T03:33:31.661Z,9.18
2022-11-03T03:36:01.101Z,14.02
2022-11-03T03:38:33.685Z,14.30
2022-11-03T03:41:05.499Z,11.27
2022-11-03T03:43:37.921Z,9.90
2022-11-03T03:46:09.216Z,8.35
2022-11-03T03:48:37.813Z,17.00
2022-11-03T03:51:07.584Z,17.40
2022-11-03T03:53:35.939Z,25.10
2022-11-03T03:56:05.903Z,20.10
2022-11-03T03:58:34.290Z,29.08
2022-11-03T04:01:04.084Z,29.33
2022-11-03T04:03:32.435Z,30.98
2022-11-03T04:06:00.710Z,24.38
2022-11-03T04:08:29.008Z,30.45
2022-11-03T04:11:17.080Z,25.08
2022-11-03T04:14:02.948Z,16.98
2022-11-03T04:16:50.345Z,23.10
2022-11-03T04:19:36.212Z,11.77
2022-11-03T04:22:21.472Z,25.05
2022-11-03T04:24:51.269Z,13.30
2022-11-03T04:27:28.905Z,17.70
2022-11-03T04:29:59.345Z,13.98
2022-11-03T04:32:30.266Z,24.33
2022-11-03T04:34:59.733Z,22.60
2022-11-03T04:37:29.136Z,21.58
2022-11-03T04:40:01.194Z,19.20
2022-11-03T04:42:32.522Z,14.45
2022-11-03T04:45:02.518Z,22.52
2022-11-03T04:47:32.398Z,15.23
2022-11-03T04:50:01.052Z,16.42
2022-11-03T04:52:30.592Z,12.88
2022-11-03T04:54:58.959Z,13.93
2022-11-03T04:57:29.511Z,16.90
2022-11-03T04:59:58.023Z,22.23
2022-11-03T05:02:26.962Z,23.05
2022-11-03T05:04:56.695Z,16.38
2022-11-03T05:07:29.262Z,21.80
2022-11-03T05:09:57.686Z,23.02
2022-11-03T05:12:26.617Z,20.60
2022-11-03T05:14:58.215Z,28.70
2022-11-03T05:17:29.206Z,28.55
2022-11-03T05:20:01.557Z,22.15
2022-11-03T05:22:35.083Z,28.55
2022-11-03T05:25:05.307Z,11.95
2022-11-03T05:27:33.668Z,25.02
2022-11-03T05:30:02.008Z,20.13
2022-11-03T05:32:31.598Z,20.15
2022-11-03T05:35:01.687Z,48.22
2022-11-03T05:37:32.279Z,28.77
2022-11-03T05:42:34.279Z,18.05
2022-11-03T05:45:04.601Z,26.25
2022-11-03T05:47:36.113Z,55.60
2022-11-03T05:50:17.595Z,54.78
2022-11-03T05:52:47.599Z,44.55
2022-11-03T05:55:27.116Z,41.78
2022-11-03T05:57:57.441Z,43.95
2022-11-03T06:00:34.368Z,41.97
2022-11-03T06:03:02.698Z,34.40
2022-11-03T06:05:33.579Z,50.30
2022-11-03T06:08:04.713Z,64.63
2022-11-03T06:10:35.942Z,62.58
2022-11-03T06:13:09.412Z,61.40
2022-11-03T06:15:38.714Z,42.95
2022-11-03T06:18:15.066Z,64.78
2022-11-03T06:20:49.664Z,38.20
2022-11-03T06:23:18.198Z,37.53
2022-11-03T06:25:46.903Z,52.83
2022-11-03T06:28:19.726Z,33.33
2022-11-03T06:30:48.754Z,62.53
2022-11-03T06:33:21.530Z,42.20
2022-11-03T06:35:52.672Z,64.00
2022-11-03T06:38:23.793Z,58.33
2022-11-03T06:40:53.450Z,53.08
2022-11-03T06:43:24.853Z,44.45
2022-11-03T06:45:55.016Z,66.75
2022-11-03T06:48:25.800Z,76.57
2022-11-03T06:50:56.584Z,135.88
2022-11-03T06:53:27.595Z,73.55
2022-11-03T06:55:55.975Z,81.47
2022-11-03T06:58:30.005Z,114.53
2022-11-03T07:01:03.380Z,107.90
2022-11-03T07:03:35.199Z,97.10
2022-11-03T07:06:19.146Z,134.00
2022-11-03T07:08:49.790Z,104.90
2022-11-03T07:13:48.222Z,91.95
2022-11-03T07:16:21.105Z,134.40
2022-11-03T07:18:49.607Z,95.00
2022-11-03T07:21:35.763Z,104.32
2022-11-03T07:24:08.265Z,55.13
2022-11-03T07:26:36.652Z,76.10
2022-11-03T07:29:05.170Z,36.17
2022-11-03T07:31:33.552Z,53.17
2022-11-03T07:34:01.928Z,49.15
2022-11-03T07:36:33.840Z,53.50
2022-11-03T07:39:03.245Z,58.88
2022-11-03T07:41:34.690Z,36.58
2022-11-03T07:44:03.428Z,31.17
2022-11-03T07:46:31.982Z,58.22
2022-11-03T07:49:02.164Z,57.97
2022-11-03T07:51:33.663Z,53.10
2022-11-03T07:54:04.932Z,51.28
2022-11-03T07:56:37.061Z,48.05
2022-11-03T07:59:13.299Z,44.42
2022-11-03T08:01:43.604Z,84.53
2022-11-03T08:04:14.129Z,60.38
2022-11-03T08:06:44.165Z,63.60
2022-11-03T08:09:12.750Z,53.15
2022-11-03T08:11:41.202Z,64.90
2022-11-03T08:14:09.454Z,67.03
2022-11-03T08:16:37.912Z,57.50
2022-11-03T08:19:06.297Z,42.63
2022-11-03T08:21:35.132Z,83.85
2022-11-03T08:24:05.593Z,29.13
2022-11-03T08:26:33.908Z,39.80
2022-11-03T08:29:02.241Z,56.05
2022-11-03T08:31:30.545Z,41.20
2022-11-03T08:33:58.843Z,44.83
2022-11-03T08:36:27.445Z,48.95
2022-11-03T08:38:55.740Z,47.10
2022-11-03T08:41:25.394Z,51.78
2022-11-03T08:43:53.698Z,59.20
2022-11-03T08:46:22.087Z,57.28
2022-11-03T08:48:50.458Z,58.15
2022-11-03T08:51:18.815Z,31.30
2022-11-03T08:53:50.607Z,53.22
2022-11-03T08:56:21.882Z,104.60
2022-11-03T08:58:52.043Z,54.33
2022-11-03T09:01:20.440Z,37.83
2022-11-03T09:03:48.885Z,28.33
2022-11-03T09:06:17.333Z,50.97
2022-11-03T09:11:34.690Z,59.72
2022-11-03T09:14:04.403Z,47.55
2022-11-03T09:16:32.686Z,23.27
2022-11-03T09:19:00.964Z,43.28
2022-11-03T09:21:29.221Z,35.33
2022-11-03T09:23:59.452Z,29.50
2022-11-03T09:26:28.198Z,25.75
2022-11-03T09:28:56.574Z,34.38
2022-11-03T09:31:28.542Z,35.85
2022-11-03T09:33:56.907Z,48.50
2022-11-03T09:36:25.257Z,23.80
2022-11-03T09:38:53.657Z,21.13
2022-11-03T09:41:27.668Z,38.42
2022-11-03T09:43:58.083Z,31.33
2022-11-03T09:46:30.254Z,27.10
2022-11-03T09:48:59.133Z,24.45
2022-11-03T09:51:28.046Z,61.00
2022-11-03T09:53:57.998Z,29.83
2022-11-03T09:56:26.837Z,49.55
2022-11-03T09:58:55.199Z,24.00
2022-11-03T10:01:23.904Z,12.38
2022-11-03T10:03:53.917Z,25.52
2022-11-03T10:06:22.199Z,20.00
2022-11-03T10:08:50.670Z,17.92
2022-11-03T10:11:19.197Z,21.95
2022-11-03T10:13:49.157Z,20.15
2022-11-03T10:16:20.224Z,16.58
2022-11-03T10:18:48.632Z,14.13
2022-11-03T10:21:19.986Z,21.27
2022-11-03T10:23:50.359Z,15.93
2022-11-03T10:26:22.221Z,18.75
2022-11-03T10:29:00.326Z,19.27
2022-11-03T10:31:36.037Z,17.15
2022-11-03T10:34:05.479Z,14.40
2022-11-03T10:36:36.404Z,13.15
2022-11-03T10:39:24.582Z,11.52
2022-11-03T10:41:58.126Z,10.60
2022-11-03T10:44:28.157Z,14.82
2022-11-03T10:47:00.370Z,11.30
2022-11-03T10:49:29.614Z,14.43
2022-11-03T10:52:06.796Z,13.95
2022-11-03T10:54:37.896Z,13.10
2022-11-03T10:57:06.410Z,9.75
2022-11-03T10:59:37.543Z,13.13
2022-11-03T11:02:16.951Z,12.27
2022-11-03T11:04:45.647Z,14.70
2022-11-03T11:07:20.891Z,12.60
2022-11-03T11:09:49.379Z,9.57
2022-11-03T11:12:19.246Z,13.40
2022-11-03T11:14:58.314Z,11.02
2022-11-03T11:17:47.397Z,14.38
2022-11-03T11:20:40.616Z,12.75
2022-11-03T11:23:49.234Z,11.68
2022-11-03T11:26:32.361Z,9.65
2022-11-03T11:29:44.202Z,12.13
2022-11-03T11:32:52.142Z,11.80
2022-11-03T11:36:15.356Z,10.30
2022-11-03T11:39:01.854Z,12.88
2022-11-03T11:42:11.799Z,9.65
2022-11-03T11:45:04.576Z,12.25
2022-11-03T11:47:47.955Z,12.65
2022-11-03T11:50:32.581Z,12.30
2022-11-03T11:53:20.765Z,11.18
2022-11-03T11:55:52.418Z,13.40
2022-11-03T11:58:38.949Z,13.70
2022-11-03T12:01:21.570Z,20.75
2022-11-03T12:03:50.987Z,27.00
2022-11-03T12:06:33.173Z,32.22
2022-11-03T12:09:08.127Z,31.05
2022-11-03T12:11:45.900Z,29.83
2022-11-03T12:14:35.367Z,29.52
2022-11-03T12:17:34.219Z,37.88
2022-11-03T12:20:44.834Z,37.83
2022-11-03T12:23:33.302Z,39.17
2022-11-03T12:26:02.138Z,46.28
2022-11-03T12:28:37.622Z,47.60
2022-11-03T12:31:07.477Z,42.58
2022-11-03T12:33:35.858Z,43.33
2022-11-03T12:36:04.496Z,47.05
2022-11-03T12:38:32.933Z,49.20
2022-11-03T12:41:21.120Z,50.55
2022-11-03T12:43:50.473Z,53.80
2022-11-03T12:46:21.754Z,51.85
2022-11-03T12:48:50.443Z,50.42
2022-11-03T12:51:20.142Z,48.08
2022-11-03T12:53:48.503Z,45.17
2022-11-03T12:56:17.676Z,43.42
2022-11-03T12:58:46.359Z,44.42
2022-11-03T13:01:14.887Z,37.95
2022-11-03T13:03:44.815Z,43.20
2022-11-03T13:06:14.817Z,41.40
2022-11-03T13:08:44.717Z,45.78
2022-11-03T13:11:32.596Z,50.00
2022-11-03T13:16:46.634Z,30.65
2022-11-03T13:19:16.363Z,23.30
2022-11-03T13:21:44.898Z,21.55
2022-11-03T13:24:13.223Z,21.30
2022-11-03T13:26:41.581Z,19.00
2022-11-03T13:29:09.883Z,22.73
2022-11-03T13:34:25.289Z,17.95
2022-11-03T13:36:53.601Z,19.08
2022-11-03T13:39:21.996Z,20.95
2022-11-03T13:41:50.368Z,18.23
2022-11-03T13:44:18.702Z,18.63
2022-11-03T13:46:47.019Z,17.13
2022-11-03T13:52:05.931Z,27.83
2022-11-03T14:00:16.410Z,16.67
2022-11-03T14:05:33.352Z,17.77
2022-11-03T14:08:03.179Z,17.77
2022-11-03T14:10:31.477Z,16.80
2022-11-03T14:15:44.424Z,18.60
2022-11-03T14:18:12.772Z,20.00
2022-11-03T14:20:41.091Z,18.05
2022-11-03T14:23:10.780Z,21.42
2022-11-03T14:25:39.176Z,19.37
2022-11-03T14:28:07.723Z,19.90
2022-11-03T14:30:36.243Z,19.15
2022-11-03T14:33:04.723Z,20.33
2022-11-03T14:35:33.322Z,22.45
2022-11-03T14:38:01.632Z,19.35
2022-11-03T14:40:48.878Z,20.80
2022-11-03T14:43:18.286Z,19.63
2022-11-03T14:45:46.745Z,17.85
2022-11-03T14:48:15.093Z,42.45
2022-11-03T14:50:43.442Z,79.45
2022-11-03T14:53:12.001Z,52.90
2022-11-03T14:55:41.691Z,75.40
2022-11-03T14:58:10.158Z,27.30
2022-11-03T15:00:38.573Z,28.42
2022-11-03T15:03:06.944Z,30.02
2022-11-03T15:05:47.440Z,21.42
2022-11-03T15:08:17.275Z,21.60
2022-11-03T15:10:46.978Z,20.98
2022-11-03T15:13:15.524Z,23.80
2022-11-03T15:15:43.922Z,21.45
2022-11-03T15:18:12.235Z,25.00
2022-11-03T15:20:40.594Z,22.35
2022-11-03T15:25:59.052Z,23.08
2022-11-03T15:28:27.405Z,23.40
2022-11-03T15:30:55.706Z,22.70
2022-11-03T15:33:24.131Z,26.88
2022-11-03T15:35:54.223Z,23.10
2022-11-03T15:38:22.629Z,25.35
2022-11-03T15:40:50.931Z,28.92
2022-11-03T15:43:20.760Z,24.23
2022-11-03T15:45:49.029Z,24.55
2022-11-03T15:48:17.287Z,24.75
2022-11-03T15:50:45.605Z,24.48
2022-11-03T15:53:13.887Z,24.63
2022-11-03T15:55:42.168Z,28.88
2022-11-03T15:58:10.774Z,25.55
2022-11-03T16:00:40.613Z,26.10
2022-11-03T16:03:09.050Z,31.33
2022-11-03T16:05:37.501Z,29.02
2022-11-03T16:08:06.456Z,27.02
2022-11-03T16:10:35.129Z,25.30
2022-11-03T16:13:03.443Z,29.15
2022-11-03T16:15:31.704Z,23.95
2022-11-03T16:18:02.836Z,28.58
2022-11-03T16:20:31.231Z,26.52
2022-11-03T16:22:59.512Z,30.45
2022-11-03T16:25:27.984Z,27.63
2022-11-03T16:27:56.248Z,30.00
2022-11-03T16:30:24.525Z,25.98
2022-11-03T16:32:54.044Z,26.88
2022-11-03T16:35:23.788Z,25.35
2022-11-03T16:37:52.113Z,32.63
2022-11-03T16:40:20.433Z,26.73
2022-11-03T16:42:49.024Z,28.73
2022-11-03T16:45:19.408Z,30.45
2022-11-03T16:47:48.155Z,32.50
2022-11-03T16:50:17.631Z,39.20
2022-11-03T16:52:48.239Z,32.45
2022-11-03T16:57:44.813Z,60.78
2022-11-03T17:00:15.129Z,36.30
2022-11-03T17:02:43.628Z,30.48
2022-11-03T17:05:12.584Z,33.92
2022-11-03T17:07:41.138Z,29.23
2022-11-03T17:10:11.621Z,39.35
2022-11-03T17:12:39.914Z,41.10
2022-11-03T17:15:08.958Z,40.42
2022-11-03T17:17:37.775Z,36.70
2022-11-03T17:20:07.060Z,39.95
2022-11-03T17:22:35.413Z,37.25
2022-11-03T17:25:03.927Z,37.63
2022-11-03T17:27:39.253Z,33.33
2022-11-03T17:30:09.786Z,36.10
2022-11-03T17:32:39.131Z,32.40
2022-11-03T17:35:12.930Z,29.13
2022-11-03T17:37:41.235Z,34.00
2022-11-03T17:40:15.880Z,30.77
2022-11-03T17:42:45.503Z,29.05
2022-11-03T17:45:15.180Z,30.83
2022-11-03T17:47:43.862Z,39.40
2022-11-03T17:50:14.860Z,30.00
2022-11-03T17:52:43.236Z,31.30
2022-11-03T17:55:17.484Z,26.48
2022-11-03T17:57:47.924Z,27.88
2022-11-03T18:00:18.043Z,29.73
2022-11-03T18:02:46.550Z,29.05
2022-11-03T18:05:26.752Z,26.35
2022-11-03T18:07:55.806Z,27.25
2022-11-03T18:10:27.506Z,27.63
2022-11-03T18:13:16.792Z,34.72
2022-11-03T18:15:47.585Z,34.78
2022-11-03T18:18:19.711Z,33.22
2022-11-03T18:20:53.425Z,39.90
2022-11-03T18:23:23.716Z,35.75
2022-11-03T18:25:52.401Z,33.05
2022-11-03T18:28:22.542Z,31.08
2022-11-03T18:30:52.749Z,29.60
2022-11-03T18:33:24.036Z,26.38
2022-11-03T18:35:53.202Z,30.45
2022-11-03T18:38:23.166Z,28.65
2022-11-03T18:40:51.594Z,28.50
2022-11-03T18:43:22.569Z,32.42
2022-11-03T18:45:51.532Z,31.13
2022-11-03T18:48:20.392Z,27.35
2022-11-03T18:50:50.120Z,27.17
2022-11-03T18:53:20.162Z,28.60
2022-11-03T18:55:48.672Z,25.42
2022-11-03T18:58:18.343Z,27.27
2022-11-03T19:00:48.187Z,27.77
2022-11-03T19:03:18.541Z,28.17
2022-11-03T19:05:47.934Z,28.13
2022-11-03T19:08:20.598Z,24.00
2022-11-03T19:10:49.273Z,26.55
2022-11-03T19:13:21.368Z,24.10
2022-11-03T19:15:51.698Z,28.27
2022-11-03T19:18:20.506Z,28.73
2022-11-03T19:20:48.783Z,33.78
2022-11-03T19:23:17.202Z,27.20
2022-11-03T19:25:45.948Z,28.95
2022-11-03T19:28:15.917Z,32.90
2022-11-03T19:30:45.050Z,35.17
2022-11-03T19:33:20.256Z,32.53
2022-11-03T19:35:48.878Z,31.15
2022-11-03T19:38:18.671Z,33.72
2022-11-03T19:41:01.666Z,33.78
2022-11-03T19:43:34.321Z,35.67
2022-11-03T19:46:03.448Z,31.58
2022-11-03T19:48:34.756Z,30.83
2022-11-03T19:51:03.699Z,34.95
2022-11-03T19:53:33.199Z,31.42
2022-11-03T19:56:01.594Z,30.75
2022-11-03T19:58:30.097Z,36.10
2022-11-03T20:01:02.849Z,36.38
2022-11-03T20:03:35.473Z,36.65
2022-11-03T20:06:03.960Z,31.90
2022-11-03T20:08:33.376Z,29.77
2022-11-03T20:11:01.937Z,33.28
2022-11-03T20:13:34.725Z,30.95
2022-11-03T20:16:02.987Z,35.05
2022-11-03T20:18:31.370Z,34.60
2022-11-03T20:21:01.125Z,37.33
2022-11-03T20:23:31.092Z,33.70
2022-11-03T20:25:59.801Z,31.02
2022-11-03T20:28:29.950Z,31.00
2022-11-03T20:30:59.900Z,32.67
2022-11-03T20:36:22.088Z,28.17
2022-11-03T20:38:52.645Z,33.50
2022-11-03T20:41:21.142Z,32.63
2022-11-03T20:43:49.775Z,32.33
2022-11-03T20:46:23.794Z,30.20
2022-11-03T20:48:52.752Z,28.45
2022-11-03T20:51:24.364Z,25.63
2022-11-03T20:53:52.817Z,30.73
2022-11-03T20:56:23.310Z,30.60
2022-11-03T20:58:51.760Z,33.38
2022-11-03T21:01:25.956Z,36.78
2022-11-03T21:04:01.796Z,39.50
2022-11-03T21:06:33.197Z,37.42
2022-11-03T21:09:01.881Z,33.75
2022-11-03T21:11:34.290Z,40.78
2022-11-03T21:14:06.375Z,33.80
2022-11-03T21:16:52.274Z,31.75
2022-11-03T21:19:39.705Z,27.08
2022-11-03T21:22:50.797Z,28.98
2022-11-03T21:25:04.383Z,30.48
2022-11-03T21:27:33.829Z,28.92
2022-11-03T21:30:03.066Z,26.63
2022-11-03T21:32:31.432Z,25.00
2022-11-03T21:35:01.757Z,28.73
2022-11-03T21:37:31.419Z,27.77
2022-11-03T21:39:59.750Z,24.37
2022-11-03T21:42:45.429Z,26.20
2022-11-03T21:45:14.773Z,27.35
2022-11-03T21:48:03.059Z,27.08
2022-11-03T21:50:30.292Z,24.40
2022-11-03T21:52:59.964Z,27.65
2022-11-03T21:55:29.011Z,29.70
2022-11-03T21:57:57.399Z,27.73
2022-11-03T22:00:25.699Z,30.35
2022-11-03T22:02:54.042Z,26.48
2022-11-03T22:05:22.353Z,26.00
2022-11-03T22:07:50.710Z,25.08
2022-11-03T22:10:20.630Z,30.00
2022-11-03T22:12:49.087Z,25.02
2022-11-03T22:15:35.349Z,24.50
2022-11-03T22:18:04.417Z,27.48
2022-11-03T22:20:50.542Z,24.35
2022-11-03T22:23:36.408Z,23.45
2022-11-03T22:26:23.773Z,24.05
2022-11-03T22:29:12.127Z,28.20
2022-11-03T22:31:42.251Z,27.83
2022-11-03T22:34:28.216Z,24.70
2022-11-03T22:36:56.591Z,23.98
2022-11-03T22:39:42.465Z,24.88
2022-11-03T22:42:31.026Z,27.08
2022-11-03T22:45:17.181Z,25.02
2022-11-03T22:47:45.492Z,25.38
2022-11-03T22:50:13.892Z,23.95
2022-11-03T22:52:42.261Z,21.42
2022-11-03T22:55:09.532Z,21.73
2022-11-03T22:57:39.229Z,24.95
2022-11-03T23:00:08.428Z,24.93
2022-11-03T23:02:36.734Z,22.95
2022-11-03T23:05:05.854Z,23.73
2022-11-03T23:07:40.036Z,22.13
2022-11-03T23:10:10.409Z,27.38
2022-11-03T23:12:40.057Z,25.20
2022-11-03T23:15:27.019Z,22.23
2022-11-03T23:18:13.035Z,23.10
2022-11-03T23:20:58.840Z,25.88
2022-11-03T23:23:44.756Z,23.88
2022-11-03T23:26:13.120Z,27.55
2022-11-03T23:28:42.797Z,23.40
2022-11-03T23:31:11.551Z,22.63
2022-11-03T23:33:40.026Z,23.08
2022-11-03T23:36:10.668Z,22.70
2022-11-03T23:41:08.922Z,25.45
2022-11-03T23:43:37.438Z,23.00
2022-11-03T23:46:24.999Z,18.65
2022-11-03T23:48:53.705Z,22.10
2022-11-03T23:51:23.311Z,18.42
2022-11-03T23:53:52.137Z,19.80
2022-11-03T23:56:38.947Z,13.38
2022-11-03T23:59:08.300Z,8.88
